sensor_id;sensor_type;location;lat;lon;timestamp;pressure;altitude;pressure_sealevel;temperature
6454;BMP180;3260;52.438;13.502;2022-09-01T04:00:45;101650.00;;;15.50
6454;BMP180;3260;52.438;13.502;2022-09-01T04:03:16;101649.00;;;14.50
6454;BMP180;3260;52.438;13.502;2022-09-01T04:05:57;101645.00;;;14.90
6454;BMP180;3260;52.438;13.502;2022-09-01T04:08:26;101657.00;;;14.80
6454;BMP180;3260;52.438;13.502;2022-09-01T04:11:02;101641.00;;;15.00
6454;BMP180;3260;52.438;13.502;2022-09-01T04:13:36;101641.00;;;15.10
6454;BMP180;3260;52.438;13.502;2022-09-01T04:16:16;101647.00;;;15.10
6454;BMP180;3260;52.438;13.502;2022-09-01T04:19:05;101649.00;;;14.80
6454;BMP180;3260;52.438;13.502;2022-09-01T04:21:42;101643.00;;;14.90
6454;BMP180;3260;52.438;13.502;2022-09-01T04:24:10;101647.00;;;14.70
6454;BMP180;3260;52.438;13.502;2022-09-01T04:26:40;101650.00;;;14.80
6454;BMP180;3260;52.438;13.502;2022-09-01T04:29:11;101655.00;;;14.50
6454;BMP180;3260;52.438;13.502;2022-09-01T04:31:41;101650.00;;;14.60
6454;BMP180;3260;52.438;13.502;2022-09-01T04:34:10;101645.00;;;14.50
6454;BMP180;3260;52.438;13.502;2022-09-01T04:36:42;101648.00;;;14.20
6454;BMP180;3260;52.438;13.502;2022-09-01T04:39:14;101651.00;;;14.00
6454;BMP180;3260;52.438;13.502;2022-09-01T04:41:44;101642.00;;;14.60
6454;BMP180;3260;52.438;13.502;2022-09-01T04:44:13;101661.00;;;14.50
6454;BMP180;3260;52.438;13.502;2022-09-01T04:46:45;101650.00;;;14.50
6454;BMP180;3260;52.438;13.502;2022-09-01T04:49:17;101658.00;;;14.80
6454;BMP180;3260;52.438;13.502;2022-09-01T04:51:51;101656.00;;;14.80
6454;BMP180;3260;52.438;13.502;2022-09-01T04:54:21;101657.00;;;14.70
6454;BMP180;3260;52.438;13.502;2022-09-01T04:56:51;101654.00;;;14.50
6454;BMP180;3260;52.438;13.502;2022-09-01T04:59:23;101661.00;;;14.80
6454;BMP180;3260;52.438;13.502;2022-09-01T05:01:54;101657.00;;;14.70
6454;BMP180;3260;52.438;13.502;2022-09-01T05:04:26;101656.00;;;14.90
6454;BMP180;3260;52.438;13.502;2022-09-01T05:06:57;101656.00;;;14.90
6454;BMP180;3260;52.438;13.502;2022-09-01T05:09:29;101637.00;;;15.30
6454;BMP180;3260;52.438;13.502;2022-09-01T05:11:58;101641.00;;;14.90
6454;BMP180;3260;52.438;13.502;2022-09-01T05:14:27;101658.00;;;15.20
6454;BMP180;3260;52.438;13.502;2022-09-01T05:16:58;101660.00;;;15.30
6454;BMP180;3260;52.438;13.502;2022-09-01T05:19:26;101636.00;;;15.40
6454;BMP180;3260;52.438;13.502;2022-09-01T05:21:56;101647.00;;;15.70
6454;BMP180;3260;52.438;13.502;2022-09-01T05:24:27;101654.00;;;15.90
6454;BMP180;3260;52.438;13.502;2022-09-01T05:26:58;101655.00;;;16.00
6454;BMP180;3260;52.438;13.502;2022-09-01T05:29:27;101651.00;;;15.80
6454;BMP180;3260;52.438;13.502;2022-09-01T05:31:57;101648.00;;;15.70
6454;BMP180;3260;52.438;13.502;2022-09-01T05:34:26;101652.00;;;16.30
6454;BMP180;3260;52.438;13.502;2022-09-01T05:36:57;101647.00;;;16.30
6454;BMP180;3260;52.438;13.502;2022-09-01T05:39:26;101652.00;;;16.20
6454;BMP180;3260;52.438;13.502;2022-09-01T05:41:55;101657.00;;;16.50
6454;BMP180;3260;52.438;13.502;2022-09-01T05:44:24;101661.00;;;16.80
6454;BMP180;3260;52.438;13.502;2022-09-01T05:46:52;101658.00;;;16.10
6454;BMP180;3260;52.438;13.502;2022-09-01T05:49:22;101665.00;;;16.60
6454;BMP180;3260;52.438;13.502;2022-09-01T05:51:52;101651.00;;;16.70
6454;BMP180;3260;52.438;13.502;2022-09-01T05:54:24;101652.00;;;16.20
6454;BMP180;3260;52.438;13.502;2022-09-01T05:56:54;101660.00;;;16.70
6454;BMP180;3260;52.438;13.502;2022-09-01T05:59:30;101663.00;;;16.80
6454;BMP180;3260;52.438;13.502;2022-09-01T06:01:59;101656.00;;;16.80
6454;BMP180;3260;52.438;13.502;2022-09-01T06:04:30;101627.00;;;16.50
6454;BMP180;3260;52.438;13.502;2022-09-01T06:06:58;101654.00;;;16.90
6454;BMP180;3260;52.438;13.502;2022-09-01T06:09:37;101658.00;;;17.00
6454;BMP180;3260;52.438;13.502;2022-09-01T06:12:06;101660.00;;;16.70
6454;BMP180;3260;52.438;13.502;2022-09-01T06:14:34;101669.00;;;17.20
6454;BMP180;3260;52.438;13.502;2022-09-01T06:17:03;101668.00;;;16.80
6454;BMP180;3260;52.438;13.502;2022-09-01T06:19:33;101665.00;;;16.90
6454;BMP180;3260;52.438;13.502;2022-09-01T06:22:03;101671.00;;;17.20
6454;BMP180;3260;52.438;13.502;2022-09-01T06:24:32;101666.00;;;17.50
6454;BMP180;3260;52.438;13.502;2022-09-01T06:27:01;101662.00;;;17.60
6454;BMP180;3260;52.438;13.502;2022-09-01T06:29:29;101669.00;;;17.50
6454;BMP180;3260;52.438;13.502;2022-09-01T06:31:57;101670.00;;;17.80
6454;BMP180;3260;52.438;13.502;2022-09-01T06:34:28;101678.00;;;17.60
6454;BMP180;3260;52.438;13.502;2022-09-01T06:37:00;101672.00;;;17.70
6454;BMP180;3260;52.438;13.502;2022-09-01T06:39:28;101673.00;;;17.70
6454;BMP180;3260;52.438;13.502;2022-09-01T06:41:57;101679.00;;;18.10
6454;BMP180;3260;52.438;13.502;2022-09-01T06:44:27;101663.00;;;18.10
6454;BMP180;3260;52.438;13.502;2022-09-01T06:46:58;101670.00;;;18.10
6454;BMP180;3260;52.438;13.502;2022-09-01T06:49:26;101676.00;;;18.10
6454;BMP180;3260;52.438;13.502;2022-09-01T06:52:03;101675.00;;;18.10
6454;BMP180;3260;52.438;13.502;2022-09-01T06:54:32;101674.00;;;18.50
6454;BMP180;3260;52.438;13.502;2022-09-01T06:57:02;101675.00;;;18.60
6454;BMP180;3260;52.438;13.502;2022-09-01T06:59:50;101683.00;;;18.80
6454;BMP180;3260;52.438;13.502;2022-09-01T07:02:21;101680.00;;;18.80
6454;BMP180;3260;52.438;13.502;2022-09-01T07:04:53;101660.00;;;18.90
6454;BMP180;3260;52.438;13.502;2022-09-01T07:07:46;101679.00;;;19.10
6454;BMP180;3260;52.438;13.502;2022-09-01T07:10:31;101682.00;;;18.90
6454;BMP180;3260;52.438;13.502;2022-09-01T07:13:00;101682.00;;;19.40
6454;BMP180;3260;52.438;13.502;2022-09-01T07:15:31;101683.00;;;19.00
6454;BMP180;3260;52.438;13.502;2022-09-01T07:18:23;101686.00;;;19.30
6454;BMP180;3260;52.438;13.502;2022-09-01T07:20:53;101688.00;;;19.20
6454;BMP180;3260;52.438;13.502;2022-09-01T07:23:35;101688.00;;;19.10
6454;BMP180;3260;52.438;13.502;2022-09-01T07:26:25;101681.00;;;19.70
6454;BMP180;3260;52.438;13.502;2022-09-01T07:28:53;101685.00;;;19.50
6454;BMP180;3260;52.438;13.502;2022-09-01T07:31:36;101693.00;;;19.80
6454;BMP180;3260;52.438;13.502;2022-09-01T07:34:26;101691.00;;;19.90
6454;BMP180;3260;52.438;13.502;2022-09-01T07:37:14;101679.00;;;19.90
6454;BMP180;3260;52.438;13.502;2022-09-01T07:40:11;101687.00;;;20.50
6454;BMP180;3260;52.438;13.502;2022-09-01T07:42:59;101672.00;;;20.70
6454;BMP180;3260;52.438;13.502;2022-09-01T07:45:36;101675.00;;;20.40
6454;BMP180;3260;52.438;13.502;2022-09-01T07:48:16;101684.00;;;20.70
6454;BMP180;3260;52.438;13.502;2022-09-01T07:51:06;101677.00;;;20.30
6454;BMP180;3260;52.438;13.502;2022-09-01T07:53:54;101682.00;;;20.60
6454;BMP180;3260;52.438;13.502;2022-09-01T07:56:24;101684.00;;;20.80
6454;BMP180;3260;52.438;13.502;2022-09-01T07:58:53;101686.00;;;20.70
6454;BMP180;3260;52.438;13.502;2022-09-01T08:01:26;101690.00;;;21.00
6454;BMP180;3260;52.438;13.502;2022-09-01T08:03:56;101691.00;;;21.10
6454;BMP180;3260;52.438;13.502;2022-09-01T08:06:28;101690.00;;;20.90
6454;BMP180;3260;52.438;13.502;2022-09-01T08:09:05;101699.00;;;20.80
6454;BMP180;3260;52.438;13.502;2022-09-01T08:11:39;101692.00;;;21.00
6454;BMP180;3260;52.438;13.502;2022-09-01T08:14:27;101694.00;;;21.10
6454;BMP180;3260;52.438;13.502;2022-09-01T08:17:00;101682.00;;;21.10
6454;BMP180;3260;52.438;13.502;2022-09-01T08:19:43;101697.00;;;21.10
6454;BMP180;3260;52.438;13.502;2022-09-01T08:22:13;101687.00;;;21.20
6454;BMP180;3260;52.438;13.502;2022-09-01T08:24:41;101697.00;;;21.30
6454;BMP180;3260;52.438;13.502;2022-09-01T08:27:11;101686.00;;;21.60
6454;BMP180;3260;52.438;13.502;2022-09-01T08:29:39;101695.00;;;21.20
6454;BMP180;3260;52.438;13.502;2022-09-01T08:32:08;101700.00;;;21.30
6454;BMP180;3260;52.438;13.502;2022-09-01T08:34:37;101698.00;;;21.10
6454;BMP180;3260;52.438;13.502;2022-09-01T08:37:05;101694.00;;;21.00
6454;BMP180;3260;52.438;13.502;2022-09-01T08:39:33;101695.00;;;21.40
6454;BMP180;3260;52.438;13.502;2022-09-01T08:42:10;101703.00;;;21.60
6454;BMP180;3260;52.438;13.502;2022-09-01T08:44:55;101701.00;;;22.00
6454;BMP180;3260;52.438;13.502;2022-09-01T08:47:26;101696.00;;;21.80
6454;BMP180;3260;52.438;13.502;2022-09-01T08:50:06;101691.00;;;22.10
6454;BMP180;3260;52.438;13.502;2022-09-01T08:52:39;101692.00;;;22.00
6454;BMP180;3260;52.438;13.502;2022-09-01T08:55:15;101691.00;;;21.90
6454;BMP180;3260;52.438;13.502;2022-09-01T08:57:48;101697.00;;;22.30
6454;BMP180;3260;52.438;13.502;2022-09-01T09:00:30;101688.00;;;22.40
6454;BMP180;3260;52.438;13.502;2022-09-01T09:03:15;101690.00;;;21.90
6454;BMP180;3260;52.438;13.502;2022-09-01T09:06:02;101703.00;;;21.80
6454;BMP180;3260;52.438;13.502;2022-09-01T09:08:56;101692.00;;;22.10
6454;BMP180;3260;52.438;13.502;2022-09-01T09:11:48;101693.00;;;22.50
6454;BMP180;3260;52.438;13.502;2022-09-01T09:14:45;101684.00;;;22.70
6454;BMP180;3260;52.438;13.502;2022-09-01T09:17:24;101692.00;;;22.80
6454;BMP180;3260;52.438;13.502;2022-09-01T09:19:55;101694.00;;;23.10
6454;BMP180;3260;52.438;13.502;2022-09-01T09:22:23;101695.00;;;23.20
6454;BMP180;3260;52.438;13.502;2022-09-01T09:24:56;101684.00;;;23.30
6454;BMP180;3260;52.438;13.502;2022-09-01T09:27:28;101689.00;;;23.50
6454;BMP180;3260;52.438;13.502;2022-09-01T09:29:59;101684.00;;;23.90
6454;BMP180;3260;52.438;13.502;2022-09-01T09:32:47;101692.00;;;24.60
6454;BMP180;3260;52.438;13.502;2022-09-01T09:35:39;101682.00;;;25.00
6454;BMP180;3260;52.438;13.502;2022-09-01T09:38:21;101685.00;;;25.30
6454;BMP180;3260;52.438;13.502;2022-09-01T09:41:00;101685.00;;;25.20
6454;BMP180;3260;52.438;13.502;2022-09-01T09:43:55;101682.00;;;25.30
6454;BMP180;3260;52.438;13.502;2022-09-01T09:46:33;101677.00;;;25.50
6454;BMP180;3260;52.438;13.502;2022-09-01T09:49:11;101672.00;;;25.40
6454;BMP180;3260;52.438;13.502;2022-09-01T09:51:44;101667.00;;;25.70
6454;BMP180;3260;52.438;13.502;2022-09-01T09:54:21;101684.00;;;26.00
6454;BMP180;3260;52.438;13.502;2022-09-01T09:57:05;101668.00;;;26.40
6454;BMP180;3260;52.438;13.502;2022-09-01T09:59:40;101676.00;;;26.90
6454;BMP180;3260;52.438;13.502;2022-09-01T10:02:30;101677.00;;;27.00
6454;BMP180;3260;52.438;13.502;2022-09-01T10:05:22;101682.00;;;27.70
6454;BMP180;3260;52.438;13.502;2022-09-01T10:07:52;101681.00;;;28.10
6454;BMP180;3260;52.438;13.502;2022-09-01T10:10:39;101685.00;;;28.00
6454;BMP180;3260;52.438;13.502;2022-09-01T10:13:12;101680.00;;;28.20
6454;BMP180;3260;52.438;13.502;2022-09-01T10:15:47;101679.00;;;27.90
6454;BMP180;3260;52.438;13.502;2022-09-01T10:18:20;101672.00;;;28.70
6454;BMP180;3260;52.438;13.502;2022-09-01T10:21:02;101678.00;;;29.10
6454;BMP180;3260;52.438;13.502;2022-09-01T10:23:34;101686.00;;;29.70
6454;BMP180;3260;52.438;13.502;2022-09-01T10:26:08;101680.00;;;29.70
6454;BMP180;3260;52.438;13.502;2022-09-01T10:28:48;101681.00;;;30.00
6454;BMP180;3260;52.438;13.502;2022-09-01T10:31:20;101678.00;;;30.70
6454;BMP180;3260;52.438;13.502;2022-09-01T10:33:49;101682.00;;;31.10
6454;BMP180;3260;52.438;13.502;2022-09-01T10:36:19;101678.00;;;31.50
6454;BMP180;3260;52.438;13.502;2022-09-01T10:38:50;101679.00;;;31.70
6454;BMP180;3260;52.438;13.502;2022-09-01T10:41:51;101682.00;;;32.30
6454;BMP180;3260;52.438;13.502;2022-09-01T10:44:28;101681.00;;;32.20
6454;BMP180;3260;52.438;13.502;2022-09-01T10:47:08;101674.00;;;32.50
6454;BMP180;3260;52.438;13.502;2022-09-01T10:49:59;101668.00;;;31.70
6454;BMP180;3260;52.438;13.502;2022-09-01T10:53:00;101678.00;;;32.50
6454;BMP180;3260;52.438;13.502;2022-09-01T10:55:42;101679.00;;;33.20
6454;BMP180;3260;52.438;13.502;2022-09-01T10:58:49;101682.00;;;33.70
6454;BMP180;3260;52.438;13.502;2022-09-01T11:02:10;101668.00;;;33.60
6454;BMP180;3260;52.438;13.502;2022-09-01T11:05:17;101677.00;;;34.00
6454;BMP180;3260;52.438;13.502;2022-09-01T11:07:45;101673.00;;;33.80
6454;BMP180;3260;52.438;13.502;2022-09-01T11:10:48;101672.00;;;34.10
6454;BMP180;3260;52.438;13.502;2022-09-01T11:13:35;101675.00;;;33.20
6454;BMP180;3260;52.438;13.502;2022-09-01T11:16:33;101674.00;;;32.80
6454;BMP180;3260;52.438;13.502;2022-09-01T11:19:43;101677.00;;;31.30
6454;BMP180;3260;52.438;13.502;2022-09-01T11:22:30;101677.00;;;31.20
6454;BMP180;3260;52.438;13.502;2022-09-01T11:25:37;101675.00;;;31.10
6454;BMP180;3260;52.438;13.502;2022-09-01T11:31:29;101676.00;;;29.60
6454;BMP180;3260;52.438;13.502;2022-09-01T11:34:14;101686.00;;;28.40
6454;BMP180;3260;52.438;13.502;2022-09-01T11:36:55;101682.00;;;28.00
6454;BMP180;3260;52.438;13.502;2022-09-01T11:39:35;101677.00;;;28.10
6454;BMP180;3260;52.438;13.502;2022-09-01T11:42:15;101673.00;;;27.60
6454;BMP180;3260;52.438;13.502;2022-09-01T11:44:51;101679.00;;;27.60
6454;BMP180;3260;52.438;13.502;2022-09-01T11:47:26;101669.00;;;27.70
6454;BMP180;3260;52.438;13.502;2022-09-01T11:49:57;101671.00;;;28.30
6454;BMP180;3260;52.438;13.502;2022-09-01T11:52:29;101674.00;;;28.70
6454;BMP180;3260;52.438;13.502;2022-09-01T11:54:58;101667.00;;;29.10
6454;BMP180;3260;52.438;13.502;2022-09-01T11:57:34;101667.00;;;29.40
6454;BMP180;3260;52.438;13.502;2022-09-01T12:00:09;101675.00;;;30.00
6454;BMP180;3260;52.438;13.502;2022-09-01T12:02:44;101668.00;;;30.60
6454;BMP180;3260;52.438;13.502;2022-09-01T12:05:30;101663.00;;;31.40
6454;BMP180;3260;52.438;13.502;2022-09-01T12:08:01;101667.00;;;32.20
6454;BMP180;3260;52.438;13.502;2022-09-01T12:10:34;101669.00;;;33.40
6454;BMP180;3260;52.438;13.502;2022-09-01T12:13:07;101669.00;;;33.00
6454;BMP180;3260;52.438;13.502;2022-09-01T12:15:39;101669.00;;;32.20
6454;BMP180;3260;52.438;13.502;2022-09-01T12:18:31;101668.00;;;30.40
6454;BMP180;3260;52.438;13.502;2022-09-01T12:21:04;101669.00;;;30.20
6454;BMP180;3260;52.438;13.502;2022-09-01T12:23:37;101673.00;;;30.10
6454;BMP180;3260;52.438;13.502;2022-09-01T12:26:13;101661.00;;;29.90
6454;BMP180;3260;52.438;13.502;2022-09-01T12:28:44;101667.00;;;30.30
6454;BMP180;3260;52.438;13.502;2022-09-01T12:31:18;101662.00;;;31.50
6454;BMP180;3260;52.438;13.502;2022-09-01T12:33:47;101657.00;;;34.70
6454;BMP180;3260;52.438;13.502;2022-09-01T12:36:23;101661.00;;;35.30
6454;BMP180;3260;52.438;13.502;2022-09-01T12:38:53;101662.00;;;34.40
6454;BMP180;3260;52.438;13.502;2022-09-01T12:41:32;101660.00;;;33.90
6454;BMP180;3260;52.438;13.502;2022-09-01T12:44:29;101663.00;;;34.00
6454;BMP180;3260;52.438;13.502;2022-09-01T12:47:00;101661.00;;;32.90
6454;BMP180;3260;52.438;13.502;2022-09-01T12:49:39;101660.00;;;32.00
6454;BMP180;3260;52.438;13.502;2022-09-01T12:52:27;101659.00;;;32.10
6454;BMP180;3260;52.438;13.502;2022-09-01T12:55:14;101658.00;;;31.10
6454;BMP180;3260;52.438;13.502;2022-09-01T12:58:07;101653.00;;;30.80
6454;BMP180;3260;52.438;13.502;2022-09-01T13:00:58;101647.00;;;30.80
6454;BMP180;3260;52.438;13.502;2022-09-01T13:03:27;101657.00;;;30.50
6454;BMP180;3260;52.438;13.502;2022-09-01T13:05:57;101653.00;;;30.70
6454;BMP180;3260;52.438;13.502;2022-09-01T13:08:28;101652.00;;;30.60
6454;BMP180;3260;52.438;13.502;2022-09-01T13:11:03;101647.00;;;30.90
6454;BMP180;3260;52.438;13.502;2022-09-01T13:13:32;101654.00;;;32.20
6454;BMP180;3260;52.438;13.502;2022-09-01T13:16:03;101645.00;;;33.50
6454;BMP180;3260;52.438;13.502;2022-09-01T13:18:37;101640.00;;;34.80
6454;BMP180;3260;52.438;13.502;2022-09-01T13:21:26;101640.00;;;36.40
6454;BMP180;3260;52.438;13.502;2022-09-01T13:23:55;101636.00;;;39.40
6454;BMP180;3260;52.438;13.502;2022-09-01T13:26:23;101636.00;;;43.10
6454;BMP180;3260;52.438;13.502;2022-09-01T13:28:52;101649.00;;;44.40
6454;BMP180;3260;52.438;13.502;2022-09-01T13:31:21;101637.00;;;48.00
6454;BMP180;3260;52.438;13.502;2022-09-01T13:33:58;101642.00;;;48.60
6454;BMP180;3260;52.438;13.502;2022-09-01T13:36:46;101645.00;;;45.00
6454;BMP180;3260;52.438;13.502;2022-09-01T13:39:19;101643.00;;;42.30
6454;BMP180;3260;52.438;13.502;2022-09-01T13:41:48;101640.00;;;41.30
6454;BMP180;3260;52.438;13.502;2022-09-01T13:44:17;101632.00;;;39.40
6454;BMP180;3260;52.438;13.502;2022-09-01T13:46:46;101642.00;;;38.10
6454;BMP180;3260;52.438;13.502;2022-09-01T13:49:34;101644.00;;;37.30
6454;BMP180;3260;52.438;13.502;2022-09-01T13:52:23;101641.00;;;35.70
6454;BMP180;3260;52.438;13.502;2022-09-01T13:54:51;101640.00;;;35.60
6454;BMP180;3260;52.438;13.502;2022-09-01T13:57:19;101638.00;;;35.00
6454;BMP180;3260;52.438;13.502;2022-09-01T13:59:47;101640.00;;;34.10
6454;BMP180;3260;52.438;13.502;2022-09-01T14:02:16;101634.00;;;34.30
6454;BMP180;3260;52.438;13.502;2022-09-01T14:04:44;101625.00;;;33.90
6454;BMP180;3260;52.438;13.502;2022-09-01T14:07:13;101626.00;;;33.70
6454;BMP180;3260;52.438;13.502;2022-09-01T14:09:41;101629.00;;;34.10
6454;BMP180;3260;52.438;13.502;2022-09-01T14:12:10;101621.00;;;34.40
6454;BMP180;3260;52.438;13.502;2022-09-01T14:14:38;101622.00;;;34.00
6454;BMP180;3260;52.438;13.502;2022-09-01T14:17:27;101616.00;;;34.20
6454;BMP180;3260;52.438;13.502;2022-09-01T14:19:55;101615.00;;;33.60
6454;BMP180;3260;52.438;13.502;2022-09-01T14:22:24;101617.00;;;33.40
6454;BMP180;3260;52.438;13.502;2022-09-01T14:24:52;101606.00;;;33.90
6454;BMP180;3260;52.438;13.502;2022-09-01T14:27:20;101614.00;;;33.80
6454;BMP180;3260;52.438;13.502;2022-09-01T14:29:48;101614.00;;;33.70
6454;BMP180;3260;52.438;13.502;2022-09-01T14:32:21;101605.00;;;33.70
6454;BMP180;3260;52.438;13.502;2022-09-01T14:34:55;101609.00;;;34.10
6454;BMP180;3260;52.438;13.502;2022-09-01T14:37:25;101601.00;;;34.00
6454;BMP180;3260;52.438;13.502;2022-09-01T14:39:56;101601.00;;;35.00
6454;BMP180;3260;52.438;13.502;2022-09-01T14:42:25;101597.00;;;39.20
6454;BMP180;3260;52.438;13.502;2022-09-01T14:44:54;101591.00;;;43.70
6454;BMP180;3260;52.438;13.502;2022-09-01T14:47:23;101595.00;;;45.40
6454;BMP180;3260;52.438;13.502;2022-09-01T14:49:51;101592.00;;;43.10
6454;BMP180;3260;52.438;13.502;2022-09-01T14:52:21;101596.00;;;42.80
6454;BMP180;3260;52.438;13.502;2022-09-01T14:54:50;101595.00;;;44.30
6454;BMP180;3260;52.438;13.502;2022-09-01T14:57:18;101594.00;;;46.30
6454;BMP180;3260;52.438;13.502;2022-09-01T14:59:57;101592.00;;;48.40
6454;BMP180;3260;52.438;13.502;2022-09-01T15:02:26;101587.00;;;49.50
6454;BMP180;3260;52.438;13.502;2022-09-01T15:04:55;101593.00;;;50.10
6454;BMP180;3260;52.438;13.502;2022-09-01T15:07:25;101592.00;;;50.80
6454;BMP180;3260;52.438;13.502;2022-09-01T15:09:53;101590.00;;;50.50
6454;BMP180;3260;52.438;13.502;2022-09-01T15:12:21;101591.00;;;46.50
6454;BMP180;3260;52.438;13.502;2022-09-01T15:14:50;101585.00;;;44.90
6454;BMP180;3260;52.438;13.502;2022-09-01T15:17:18;101583.00;;;44.70
6454;BMP180;3260;52.438;13.502;2022-09-01T15:19:46;101570.00;;;45.10
6454;BMP180;3260;52.438;13.502;2022-09-01T15:22:14;101585.00;;;43.90
6454;BMP180;3260;52.438;13.502;2022-09-01T15:24:43;101583.00;;;43.20
6454;BMP180;3260;52.438;13.502;2022-09-01T15:27:11;101584.00;;;42.10
6454;BMP180;3260;52.438;13.502;2022-09-01T15:29:40;101589.00;;;41.90
6454;BMP180;3260;52.438;13.502;2022-09-01T15:32:12;101593.00;;;41.90
6454;BMP180;3260;52.438;13.502;2022-09-01T15:34:53;101588.00;;;42.40
6454;BMP180;3260;52.438;13.502;2022-09-01T15:37:22;101582.00;;;41.70
6454;BMP180;3260;52.438;13.502;2022-09-01T15:39:51;101586.00;;;42.50
6454;BMP180;3260;52.438;13.502;2022-09-01T15:42:19;101579.00;;;44.30
6454;BMP180;3260;52.438;13.502;2022-09-01T15:44:47;101584.00;;;46.30
6454;BMP180;3260;52.438;13.502;2022-09-01T15:47:15;101583.00;;;46.90
6454;BMP180;3260;52.438;13.502;2022-09-01T15:49:43;101579.00;;;48.30
6454;BMP180;3260;52.438;13.502;2022-09-01T15:52:15;101575.00;;;49.30
6454;BMP180;3260;52.438;13.502;2022-09-01T15:54:43;101571.00;;;49.20
6454;BMP180;3260;52.438;13.502;2022-09-01T15:57:13;101575.00;;;49.30
6454;BMP180;3260;52.438;13.502;2022-09-01T15:59:41;101578.00;;;49.60
6454;BMP180;3260;52.438;13.502;2022-09-01T16:02:11;101578.00;;;49.70
6454;BMP180;3260;52.438;13.502;2022-09-01T16:04:43;101579.00;;;48.90
6454;BMP180;3260;52.438;13.502;2022-09-01T16:07:11;101580.00;;;47.90
6454;BMP180;3260;52.438;13.502;2022-09-01T16:09:39;101591.00;;;47.00
6454;BMP180;3260;52.438;13.502;2022-09-01T16:12:07;101583.00;;;46.40
6454;BMP180;3260;52.438;13.502;2022-09-01T16:14:37;101579.00;;;45.80
6454;BMP180;3260;52.438;13.502;2022-09-01T16:17:16;101584.00;;;45.00
6454;BMP180;3260;52.438;13.502;2022-09-01T16:19:52;101591.00;;;44.10
6454;BMP180;3260;52.438;13.502;2022-09-01T16:22:27;101586.00;;;44.10
6454;BMP180;3260;52.438;13.502;2022-09-01T16:25:00;101589.00;;;44.80
6454;BMP180;3260;52.438;13.502;2022-09-01T16:27:34;101587.00;;;44.30
6454;BMP180;3260;52.438;13.502;2022-09-01T16:30:08;101583.00;;;44.00
6454;BMP180;3260;52.438;13.502;2022-09-01T16:32:40;101582.00;;;44.10
6454;BMP180;3260;52.438;13.502;2022-09-01T16:35:10;101571.00;;;44.50
6454;BMP180;3260;52.438;13.502;2022-09-01T16:37:51;101579.00;;;44.40
6454;BMP180;3260;52.438;13.502;2022-09-01T16:40:38;101569.00;;;43.30
6454;BMP180;3260;52.438;13.502;2022-09-01T16:43:21;101579.00;;;43.30
6454;BMP180;3260;52.438;13.502;2022-09-01T16:46:04;101575.00;;;43.50
6454;BMP180;3260;52.438;13.502;2022-09-01T16:48:42;101570.00;;;42.70
6454;BMP180;3260;52.438;13.502;2022-09-01T16:51:20;101564.00;;;42.40
6454;BMP180;3260;52.438;13.502;2022-09-01T16:54:12;101561.00;;;41.50
6454;BMP180;3260;52.438;13.502;2022-09-01T16:56:52;101565.00;;;40.60
6454;BMP180;3260;52.438;13.502;2022-09-01T16:59:33;101561.00;;;39.20
6454;BMP180;3260;52.438;13.502;2022-09-01T17:02:26;101560.00;;;37.20
6454;BMP180;3260;52.438;13.502;2022-09-01T17:05:08;101568.00;;;35.10
6454;BMP180;3260;52.438;13.502;2022-09-01T17:07:49;101568.00;;;33.40
6454;BMP180;3260;52.438;13.502;2022-09-01T17:10:30;101562.00;;;32.00
6454;BMP180;3260;52.438;13.502;2022-09-01T17:13:15;101564.00;;;30.60
6454;BMP180;3260;52.438;13.502;2022-09-01T17:15:54;101567.00;;;29.80
6454;BMP180;3260;52.438;13.502;2022-09-01T17:18:32;101566.00;;;28.60
6454;BMP180;3260;52.438;13.502;2022-09-01T17:21:11;101577.00;;;28.20
6454;BMP180;3260;52.438;13.502;2022-09-01T17:23:51;101573.00;;;27.70
6454;BMP180;3260;52.438;13.502;2022-09-01T17:26:26;101571.00;;;26.90
6454;BMP180;3260;52.438;13.502;2022-09-01T17:29:02;101573.00;;;26.40
6454;BMP180;3260;52.438;13.502;2022-09-01T17:31:49;101574.00;;;25.80
6454;BMP180;3260;52.438;13.502;2022-09-01T17:34:34;101578.00;;;25.20
6454;BMP180;3260;52.438;13.502;2022-09-01T17:37:17;101584.00;;;24.70
6454;BMP180;3260;52.438;13.502;2022-09-01T17:40:08;101580.00;;;24.40
6454;BMP180;3260;52.438;13.502;2022-09-01T17:42:46;101582.00;;;24.30
6454;BMP180;3260;52.438;13.502;2022-09-01T17:45:25;101596.00;;;23.60
6454;BMP180;3260;52.438;13.502;2022-09-01T17:48:06;101586.00;;;23.40
6454;BMP180;3260;52.438;13.502;2022-09-01T17:50:56;101591.00;;;22.70
6454;BMP180;3260;52.438;13.502;2022-09-01T17:53:40;101595.00;;;22.70
6454;BMP180;3260;52.438;13.502;2022-09-01T17:56:26;101591.00;;;22.80
6454;BMP180;3260;52.438;13.502;2022-09-01T17:59:05;101593.00;;;22.60
6454;BMP180;3260;52.438;13.502;2022-09-01T18:01:50;101591.00;;;22.00
6454;BMP180;3260;52.438;13.502;2022-09-01T18:04:46;101596.00;;;21.90
6454;BMP180;3260;52.438;13.502;2022-09-01T18:07:41;101594.00;;;21.60
6454;BMP180;3260;52.438;13.502;2022-09-01T18:10:17;101596.00;;;21.50
6454;BMP180;3260;52.438;13.502;2022-09-01T18:12:57;101602.00;;;21.40
6454;BMP180;3260;52.438;13.502;2022-09-01T18:15:27;101592.00;;;21.10
6454;BMP180;3260;52.438;13.502;2022-09-01T18:18:09;101597.00;;;21.00
6454;BMP180;3260;52.438;13.502;2022-09-01T18:20:46;101594.00;;;20.80
6454;BMP180;3260;52.438;13.502;2022-09-01T18:23:18;101594.00;;;20.70
6454;BMP180;3260;52.438;13.502;2022-09-01T18:25:51;101591.00;;;20.70
6454;BMP180;3260;52.438;13.502;2022-09-01T18:28:20;101595.00;;;20.70
6454;BMP180;3260;52.438;13.502;2022-09-01T18:30:59;101595.00;;;20.40
6454;BMP180;3260;52.438;13.502;2022-09-01T18:33:37;101600.00;;;20.30
6454;BMP180;3260;52.438;13.502;2022-09-01T18:36:24;101601.00;;;20.10
6454;BMP180;3260;52.438;13.502;2022-09-01T18:39:00;101608.00;;;19.90
6454;BMP180;3260;52.438;13.502;2022-09-01T18:41:53;101613.00;;;19.90
6454;BMP180;3260;52.438;13.502;2022-09-01T18:44:40;101604.00;;;19.90
6454;BMP180;3260;52.438;13.502;2022-09-01T18:47:12;101613.00;;;19.50
6454;BMP180;3260;52.438;13.502;2022-09-01T18:49:56;101612.00;;;19.30
6454;BMP180;3260;52.438;13.502;2022-09-01T18:53:01;101617.00;;;19.40
6454;BMP180;3260;52.438;13.502;2022-09-01T18:55:41;101616.00;;;19.30
6454;BMP180;3260;52.438;13.502;2022-09-01T18:58:31;101617.00;;;18.90
6454;BMP180;3260;52.438;13.502;2022-09-01T19:01:07;101612.00;;;18.70
6454;BMP180;3260;52.438;13.502;2022-09-01T19:03:40;101617.00;;;18.80